Time,TemperatureF,DewpointF,PressureIn,WindDirection,WindDirectionDegrees,WindSpeedMPH,WindSpeedGustMPH,Humidity,HourlyPrecipIn,Conditions,Clouds,dailyrainin,SoftwareType,DateUTC
2013-03-06 12:00:00,46.1,27.4,29.95,SSW,203,3.4,3.4,48,0.00,,,0.00,WUHU216HW,2013-03-06 19:00:00,
2013-03-06 12:01:00,46.1,27.4,29.95,West,270,4.7,5.4,48,0.00,,,0.00,WUHU216HW,2013-03-06 19:01:00,
2013-03-06 12:06:00,45.9,26.7,29.95,West,270,1.8,6.0,47,0.00,,,0.00,WUHU216HW,2013-03-06 19:06:00,
2013-03-06 12:11:00,45.9,26.7,29.95,West,270,1.8,6.0,47,0.00,,,0.00,WUHU216HW,2013-03-06 19:11:00,
2013-03-06 12:36:00,47.0,26.6,29.94,West,270,2.5,2.5,45,0.00,,,0.00,WUHU216HW,2013-03-06 19:36:00,
2013-03-06 12:41:00,47.0,26.6,29.94,West,270,2.5,2.5,45,0.00,,,0.00,WUHU216HW,2013-03-06 19:41:00,
2013-03-06 13:00:00,48.4,27.4,29.92,ENE,68,1.3,1.3,44,0.00,,,0.00,WUHU216HW,2013-03-06 20:00:00,
2013-03-06 13:05:00,48.4,27.4,29.92,ENE,68,1.3,1.3,44,0.00,,,0.00,WUHU216HW,2013-03-06 20:05:00,
2013-03-06 13:30:00,50.2,28.4,29.90,SW,225,2.9,2.9,43,0.00,,,0.00,WUHU216HW,2013-03-06 20:30:00,
2013-03-06 13:35:00,50.2,28.4,29.90,SW,225,2.9,2.9,43,0.00,,,0.00,WUHU216HW,2013-03-06 20:35:00,
2013-03-06 14:00:00,51.5,29.6,29.88,SE,135,3.4,3.4,43,0.00,,,0.00,WUHU216HW,2013-03-06 21:00:00,
2013-03-06 14:05:00,51.5,29.6,29.88,SE,135,3.4,3.4,43,0.00,,,0.00,WUHU216HW,2013-03-06 21:05:00,
2013-03-06 14:30:00,52.6,30.6,29.88,SSW,203,2.7,2.7,43,0.00,,,0.00,WUHU216HW,2013-03-06 21:30:00,
2013-03-06 14:35:00,52.6,30.6,29.88,SSW,203,2.7,2.7,43,0.00,,,0.00,WUHU216HW,2013-03-06 21:35:00,
2013-03-06 15:00:00,53.8,29.3,29.87,WSW,248,1.8,1.8,39,0.00,,,0.00,WUHU216HW,2013-03-06 22:00:00,
2013-03-06 15:05:00,53.8,29.3,29.87,WSW,248,1.8,1.8,39,0.00,,,0.00,WUHU216HW,2013-03-06 22:05:00,
2013-03-06 15:30:00,54.9,31.6,29.85,SE,135,1.8,1.8,41,0.00,,,0.00,WUHU216HW,2013-03-06 22:30:00,
2013-03-06 15:35:00,54.9,31.6,29.85,SE,135,1.8,1.8,41,0.00,,,0.00,WUHU216HW,2013-03-06 22:35:00,
2013-03-06 16:00:00,56.2,31.4,29.85,SSE,158,4.3,4.3,39,0.00,,,0.00,WUHU216HW,2013-03-06 23:00:00,
2013-03-06 16:05:00,56.2,31.4,29.85,SSE,158,4.3,4.3,39,0.00,,,0.00,WUHU216HW,2013-03-06 23:05:00,
2013-03-06 16:30:00,55.6,29.5,29.84,NNW,338,0.4,0.4,37,0.00,,,0.00,WUHU216HW,2013-03-06 23:30:00,
2013-03-06 16:35:00,55.6,29.5,29.84,NNW,338,0.4,0.4,37,0.00,,,0.00,WUHU216HW,2013-03-06 23:35:00,
2013-03-06 17:00:00,53.3,28.2,29.84,SW,225,0.4,0.4,38,0.00,,,0.00,WUHU216HW,2013-03-07 00:00:00,
2013-03-06 17:05:00,53.3,28.2,29.84,SW,225,0.4,0.4,38,0.00,,,0.00,WUHU216HW,2013-03-07 00:05:00,
2013-03-06 17:30:00,51.1,27.6,29.86,SW,225,3.6,3.6,40,0.00,,,0.00,WUHU216HW,2013-03-07 00:30:00,
2013-03-06 17:35:00,51.1,27.6,29.86,SW,225,3.6,3.6,40,0.00,,,0.00,WUHU216HW,2013-03-07 00:35:00,
2013-03-06 18:00:00,50.4,27.0,29.85,SSE,158,1.8,1.8,40,0.00,,,0.00,WUHU216HW,2013-03-07 01:00:00,
2013-03-06 18:05:00,50.4,27.0,29.85,SSE,158,1.8,1.8,40,0.00,,,0.00,WUHU216HW,2013-03-07 01:05:00,
2013-03-06 18:30:00,48.2,25.6,29.85,SW,225,1.8,1.8,41,0.00,,,0.00,WUHU216HW,2013-03-07 01:30:00,
2013-03-06 18:35:00,48.2,25.6,29.85,SW,225,1.8,1.8,41,0.00,,,0.00,WUHU216HW,2013-03-07 01:35:00,
2013-03-06 19:00:00,46.8,24.9,29.86,SE,135,3.6,3.6,42,0.00,,,0.00,WUHU216HW,2013-03-07 02:00:00,
2013-03-06 19:05:00,46.8,24.9,29.86,SE,135,3.6,3.6,42,0.00,,,0.00,WUHU216HW,2013-03-07 02:05:00,